createdAt,value
2024-03-09T00:01:13.999Z,13.30
2024-03-09T00:04:06.405Z,12.93
2024-03-09T00:06:59.993Z,11.77
2024-03-09T00:09:52.230Z,10.82
2024-03-09T00:12:45.392Z,9.02
2024-03-09T00:15:37.582Z,8.45
2024-03-09T00:18:37.177Z,9.25
2024-03-09T00:21:36.714Z,7.53
2024-03-09T00:24:29.591Z,5.90
2024-03-09T00:27:28.289Z,6.20
2024-03-09T00:30:21.161Z,4.63
2024-03-09T00:33:13.130Z,6.45
2024-03-09T00:36:05.596Z,6.60
2024-03-09T00:38:58.212Z,5.50
2024-03-09T00:41:50.300Z,5.95
2024-03-09T00:44:45.263Z,6.22
2024-03-09T00:47:38.996Z,6.32
2024-03-09T00:50:32.305Z,5.18
2024-03-09T00:53:24.274Z,5.60
2024-03-09T00:56:16.851Z,4.20
2024-03-09T00:59:10.690Z,4.40
2024-03-09T01:02:03.653Z,4.38
2024-03-09T01:04:56.340Z,4.57
2024-03-09T01:07:48.837Z,3.28
2024-03-09T01:10:42.028Z,3.42
2024-03-09T01:13:34.693Z,4.00
2024-03-09T01:16:27.416Z,4.03
2024-03-09T01:19:20.570Z,4.03
2024-03-09T01:22:14.418Z,4.10
2024-03-09T01:25:07.917Z,4.25
2024-03-09T01:28:00.564Z,4.45
2024-03-09T01:30:52.326Z,4.03
2024-03-09T01:33:45.961Z,3.92
2024-03-09T01:36:38.637Z,5.68
2024-03-09T01:39:31.587Z,4.97
2024-03-09T01:42:24.687Z,4.65
2024-03-09T01:45:17.489Z,5.15
2024-03-09T01:48:13.026Z,5.00
2024-03-09T01:51:06.094Z,4.97
2024-03-09T01:53:59.083Z,4.97
2024-03-09T01:56:57.075Z,4.53
2024-03-09T01:59:56.559Z,4.93
2024-03-09T02:02:51.507Z,5.10
2024-03-09T02:05:46.857Z,5.50
2024-03-09T02:08:40.981Z,4.38
2024-03-09T02:11:33.597Z,4.18
2024-03-09T02:14:25.746Z,4.40
2024-03-09T02:17:18.439Z,4.80
2024-03-09T02:20:12.631Z,4.18
2024-03-09T02:23:10.144Z,4.22
2024-03-09T02:26:07.156Z,5.00
2024-03-09T02:28:59.579Z,4.80
2024-03-09T02:31:56.901Z,5.00
2024-03-09T02:34:50.047Z,4.45
2024-03-09T02:37:42.530Z,5.38
2024-03-09T02:40:34.372Z,4.60
2024-03-09T02:43:27.185Z,5.10
2024-03-09T02:46:22.656Z,4.88
2024-03-09T02:49:14.683Z,4.20
2024-03-09T02:52:06.824Z,3.65
2024-03-09T02:54:59.545Z,4.88
2024-03-09T02:57:54.756Z,3.17
2024-03-09T03:00:48.575Z,3.73
2024-03-09T03:03:47.751Z,3.58
2024-03-09T03:06:40.019Z,3.78
2024-03-09T03:09:33.377Z,3.72
2024-03-09T03:12:27.470Z,3.20
2024-03-09T03:15:21.022Z,4.07
2024-03-09T03:18:14.112Z,3.70
2024-03-09T03:21:06.816Z,4.85
2024-03-09T03:23:59.686Z,3.60
2024-03-09T03:26:51.693Z,3.45
2024-03-09T03:29:43.701Z,3.17
2024-03-09T03:32:35.571Z,3.45
2024-03-09T03:35:27.917Z,3.53
2024-03-09T03:38:20.854Z,4.43
2024-03-09T03:41:15.575Z,4.40
2024-03-09T03:44:07.642Z,4.50
2024-03-09T03:46:59.622Z,4.40
2024-03-09T03:49:51.859Z,4.38
2024-03-09T03:52:44.628Z,3.78
2024-03-09T03:55:38.583Z,3.85
2024-03-09T03:58:31.057Z,3.97
2024-03-09T04:01:24.883Z,3.15
2024-03-09T04:04:17.773Z,3.00
2024-03-09T04:07:10.816Z,2.83
2024-03-09T04:10:13.322Z,2.92
2024-03-09T04:13:06.641Z,2.53
2024-03-09T04:15:59.692Z,2.45
2024-03-09T04:18:52.258Z,3.95
2024-03-09T04:21:44.903Z,2.83
2024-03-09T04:24:36.692Z,3.55
2024-03-09T04:27:33.974Z,3.10
2024-03-09T04:30:27.224Z,2.63
2024-03-09T04:33:22.845Z,2.60
2024-03-09T04:36:14.584Z,3.17
2024-03-09T04:39:10.910Z,3.42
2024-03-09T04:42:02.793Z,3.50
2024-03-09T04:44:54.928Z,3.03
2024-03-09T04:47:47.788Z,4.03
2024-03-09T04:50:41.863Z,4.13
2024-03-09T04:53:34.763Z,5.03
2024-03-09T04:56:26.813Z,3.45
2024-03-09T04:59:19.249Z,3.53
2024-03-09T05:02:12.358Z,4.15
2024-03-09T05:05:06.163Z,3.15
2024-03-09T05:07:58.981Z,2.92
2024-03-09T05:10:50.810Z,3.03
2024-03-09T05:13:43.368Z,2.60
2024-03-09T05:16:35.729Z,2.70
2024-03-09T05:19:28.204Z,2.60
2024-03-09T05:22:20.888Z,2.97
2024-03-09T05:25:13.826Z,3.33
2024-03-09T05:28:06.244Z,2.72
2024-03-09T05:31:00.894Z,3.13
2024-03-09T05:33:53.181Z,3.20
2024-03-09T05:36:46.008Z,3.75
2024-03-09T05:39:38.031Z,3.33
2024-03-09T05:42:29.900Z,3.40
2024-03-09T05:45:22.614Z,3.60
2024-03-09T05:48:15.049Z,3.78
2024-03-09T05:51:11.108Z,5.60
2024-03-09T05:54:03.866Z,7.35
2024-03-09T05:56:56.067Z,6.45
2024-03-09T05:59:47.913Z,7.57
2024-03-09T06:02:44.889Z,6.95
2024-03-09T06:05:39.174Z,6.07
2024-03-09T06:08:34.730Z,6.00
2024-03-09T06:11:26.950Z,6.63
2024-03-09T06:14:21.938Z,7.15
2024-03-09T06:17:15.867Z,7.53
2024-03-09T06:20:08.376Z,9.15
2024-03-09T06:23:01.732Z,8.05
2024-03-09T06:25:54.910Z,7.00
2024-03-09T06:28:47.612Z,8.30
2024-03-09T06:31:39.884Z,7.40
2024-03-09T06:34:32.212Z,7.82
2024-03-09T06:37:24.951Z,7.25
2024-03-09T06:40:19.438Z,7.50
2024-03-09T06:43:14.198Z,5.82
2024-03-09T06:46:09.788Z,7.00
2024-03-09T06:49:06.259Z,5.85
2024-03-09T06:51:59.653Z,6.70
2024-03-09T06:54:54.521Z,6.07
2024-03-09T06:57:50.068Z,5.65
2024-03-09T07:00:42.578Z,6.50
2024-03-09T07:03:36.428Z,6.25
2024-03-09T07:06:28.967Z,6.07
2024-03-09T07:09:21.593Z,5.93
2024-03-09T07:12:14.474Z,5.88
2024-03-09T07:15:16.413Z,5.72
2024-03-09T07:18:12.448Z,8.10
2024-03-09T07:21:06.499Z,9.00
2024-03-09T07:24:00.077Z,10.68
2024-03-09T07:26:52.212Z,14.80
2024-03-09T07:29:51.076Z,10.35
2024-03-09T07:32:44.504Z,10.07
2024-03-09T07:35:37.422Z,11.80
2024-03-09T07:38:30.336Z,10.40
2024-03-09T07:41:23.875Z,11.48
2024-03-09T07:44:16.420Z,9.50
2024-03-09T07:47:09.777Z,28.65
2024-03-09T07:50:03.350Z,18.23
2024-03-09T07:52:58.761Z,25.98
2024-03-09T07:55:51.441Z,20.88
2024-03-09T07:58:44.311Z,12.75
2024-03-09T08:01:39.812Z,12.23
2024-03-09T08:04:32.393Z,18.45
2024-03-09T08:07:25.092Z,11.35
2024-03-09T08:10:22.608Z,12.10
2024-03-09T08:13:15.984Z,18.23
2024-03-09T08:16:08.594Z,20.50
2024-03-09T08:19:01.439Z,11.25
2024-03-09T08:21:54.371Z,9.65
2024-03-09T08:24:46.307Z,12.00
2024-03-09T08:27:42.495Z,14.27
2024-03-09T08:30:35.335Z,15.30
2024-03-09T08:33:27.483Z,15.18
2024-03-09T08:36:24.004Z,19.02
2024-03-09T08:39:16.286Z,15.65
2024-03-09T08:42:08.336Z,18.70
2024-03-09T08:45:00.549Z,18.25
2024-03-09T08:47:54.939Z,19.20
2024-03-09T08:50:47.398Z,11.25
2024-03-09T08:53:40.091Z,18.58
2024-03-09T08:56:32.947Z,11.60
2024-03-09T08:59:25.516Z,13.77
2024-03-09T09:02:19.787Z,14.23
2024-03-09T09:05:15.796Z,11.27
2024-03-09T09:08:08.566Z,13.15
2024-03-09T09:11:01.410Z,10.35
2024-03-09T09:13:53.655Z,10.73
2024-03-09T09:16:48.208Z,10.73
2024-03-09T09:19:41.224Z,10.40
2024-03-09T09:22:33.586Z,15.88
2024-03-09T09:25:30.941Z,14.90
2024-03-09T09:28:25.523Z,20.92
2024-03-09T09:31:17.296Z,21.83
2024-03-09T09:34:11.972Z,17.15
2024-03-09T09:37:04.714Z,13.00
2024-03-09T09:39:57.409Z,13.32
2024-03-09T09:42:50.050Z,18.05
2024-03-09T09:45:46.290Z,12.85
2024-03-09T09:48:39.100Z,14.65
2024-03-09T09:51:32.334Z,18.20
2024-03-09T09:54:28.153Z,19.42
2024-03-09T09:57:21.769Z,13.90
2024-03-09T10:00:15.736Z,19.02
2024-03-09T10:03:08.833Z,19.42
2024-03-09T10:06:01.691Z,16.27
2024-03-09T10:08:54.991Z,15.32
2024-03-09T10:11:47.704Z,18.73
2024-03-09T10:14:42.774Z,24.95
2024-03-09T10:17:36.029Z,14.93
2024-03-09T10:20:31.165Z,18.45
2024-03-09T10:23:23.314Z,28.70
2024-03-09T10:26:15.587Z,37.72
2024-03-09T10:29:08.597Z,16.88
2024-03-09T10:32:02.505Z,11.25
2024-03-09T10:34:54.709Z,14.75
2024-03-09T10:37:57.423Z,20.27
2024-03-09T10:40:52.733Z,18.25
2024-03-09T10:43:45.983Z,18.58
2024-03-09T10:46:43.344Z,11.55
2024-03-09T10:49:35.886Z,10.57
2024-03-09T10:52:29.592Z,14.00
2024-03-09T10:55:33.436Z,22.17
2024-03-09T10:58:27.230Z,14.55
2024-03-09T11:01:23.330Z,12.00
2024-03-09T11:04:17.705Z,18.08
2024-03-09T11:07:09.987Z,13.70
2024-03-09T11:10:07.008Z,22.58
2024-03-09T11:12:59.949Z,21.38
2024-03-09T11:15:56.596Z,21.17
2024-03-09T11:18:58.958Z,20.17
2024-03-09T11:21:53.384Z,27.17
2024-03-09T11:24:46.863Z,16.88
2024-03-09T11:27:42.795Z,20.30
2024-03-09T11:30:35.852Z,12.20
2024-03-09T11:33:32.153Z,11.98
2024-03-09T11:36:53.903Z,36.30
2024-03-09T11:39:48.844Z,15.02
2024-03-09T11:42:43.181Z,11.60
2024-03-09T11:45:36.563Z,17.42
2024-03-09T11:48:28.577Z,18.00
2024-03-09T11:51:24.180Z,12.02
2024-03-09T11:54:18.209Z,18.38
2024-03-09T11:57:10.825Z,11.55
2024-03-09T12:00:08.168Z,14.43
2024-03-09T12:03:01.204Z,17.92
2024-03-09T12:05:56.401Z,15.82
2024-03-09T12:08:52.585Z,17.38
2024-03-09T12:11:48.022Z,22.55
2024-03-09T12:14:42.992Z,21.33
2024-03-09T12:17:36.283Z,25.60
2024-03-09T12:20:29.540Z,22.90
2024-03-09T12:23:22.021Z,15.15
2024-03-09T12:26:15.139Z,17.45
2024-03-09T12:29:12.007Z,19.38
2024-03-09T12:32:06.275Z,17.25
2024-03-09T12:35:01.254Z,19.48
2024-03-09T12:37:53.998Z,17.75
2024-03-09T12:40:46.934Z,21.52
2024-03-09T12:43:40.192Z,26.17
2024-03-09T12:46:36.260Z,15.98
2024-03-09T12:49:28.734Z,16.17
2024-03-09T12:52:22.666Z,15.40
2024-03-09T12:55:26.078Z,13.93
2024-03-09T12:58:20.314Z,15.43
2024-03-09T13:01:12.860Z,17.67
2024-03-09T13:04:10.524Z,12.50
2024-03-09T13:07:02.923Z,14.98
2024-03-09T13:09:54.992Z,15.40
2024-03-09T13:12:50.180Z,17.55
2024-03-09T13:15:45.722Z,13.13
2024-03-09T13:18:37.737Z,35.63
2024-03-09T13:21:29.766Z,24.73
2024-03-09T13:24:25.979Z,26.67
2024-03-09T13:27:18.160Z,23.45
2024-03-09T13:30:18.242Z,18.00
2024-03-09T13:33:10.925Z,18.08
2024-03-09T13:36:03.221Z,15.88
2024-03-09T13:38:55.565Z,19.45
2024-03-09T13:41:47.966Z,12.80
2024-03-09T13:44:39.882Z,11.80
2024-03-09T13:47:35.471Z,13.13
2024-03-09T13:50:29.652Z,12.60
2024-03-09T13:53:22.420Z,11.50
2024-03-09T13:56:18.104Z,14.38
2024-03-09T13:59:15.062Z,10.88
2024-03-09T14:02:09.983Z,8.48
2024-03-09T14:05:02.280Z,8.70
2024-03-09T14:08:00.195Z,9.77
2024-03-09T14:10:58.619Z,10.50
2024-03-09T14:13:51.389Z,9.50
2024-03-09T14:16:44.031Z,11.02
2024-03-09T14:19:40.033Z,9.00
2024-03-09T14:22:35.042Z,9.07
2024-03-09T14:25:31.068Z,8.20
2024-03-09T14:28:23.942Z,8.65
2024-03-09T14:31:18.776Z,10.13
2024-03-09T14:34:11.164Z,10.67
2024-03-09T14:37:03.624Z,11.27
2024-03-09T14:39:56.075Z,8.55
2024-03-09T14:42:49.070Z,10.68
2024-03-09T14:45:41.148Z,12.30
2024-03-09T14:48:33.569Z,14.93
2024-03-09T14:51:30.598Z,12.75
2024-03-09T14:54:24.234Z,12.15
2024-03-09T14:57:16.080Z,15.45
2024-03-09T15:00:16.242Z,16.77
2024-03-09T15:03:15.273Z,14.52
2024-03-09T15:06:12.108Z,10.25
2024-03-09T15:09:09.869Z,11.40
2024-03-09T15:12:02.324Z,10.18
2024-03-09T15:14:55.337Z,11.02
2024-03-09T15:17:49.396Z,12.18
2024-03-09T15:20:42.836Z,10.80
2024-03-09T15:23:37.489Z,10.05
2024-03-09T15:26:32.296Z,13.32
2024-03-09T15:29:25.602Z,13.50
2024-03-09T15:32:18.644Z,13.68
2024-03-09T15:35:11.141Z,13.60
2024-03-09T15:38:04.602Z,20.45
2024-03-09T15:40:57.639Z,13.95
2024-03-09T15:43:51.129Z,15.57
2024-03-09T15:46:43.860Z,10.88
2024-03-09T15:49:36.106Z,16.38
2024-03-09T15:52:28.221Z,14.88
2024-03-09T15:55:25.269Z,14.52
2024-03-09T15:58:18.307Z,14.05
2024-03-09T16:01:17.083Z,15.15
2024-03-09T16:04:11.480Z,13.00
2024-03-09T16:07:04.912Z,12.82
2024-03-09T16:09:57.178Z,14.98
2024-03-09T16:12:57.652Z,14.63
2024-03-09T16:15:50.434Z,15.05
2024-03-09T16:18:44.003Z,15.10
2024-03-09T16:21:38.694Z,13.25
2024-03-09T16:24:31.241Z,13.07
2024-03-09T16:27:26.791Z,12.18
2024-03-09T16:30:31.755Z,14.48
2024-03-09T16:33:24.498Z,12.65
2024-03-09T16:36:17.206Z,14.60
2024-03-09T16:39:18.949Z,11.75
2024-03-09T16:42:15.530Z,14.75
2024-03-09T16:45:10.958Z,12.90
2024-03-09T16:48:07.302Z,14.85
2024-03-09T16:51:02.362Z,13.55
2024-03-09T16:53:55.181Z,14.80
2024-03-09T16:56:47.352Z,22.13
2024-03-09T16:59:39.496Z,15.77
2024-03-09T17:02:31.146Z,14.23
2024-03-09T17:05:32.238Z,15.55
2024-03-09T17:08:24.710Z,14.75
2024-03-09T17:11:18.967Z,13.52
2024-03-09T17:14:19.147Z,73.53
2024-03-09T17:17:11.339Z,47.33
2024-03-09T17:20:10.484Z,196.18
2024-03-09T17:23:06.418Z,242.55
2024-03-09T17:25:59.489Z,50.30
2024-03-09T17:28:52.665Z,34.05
2024-03-09T17:31:51.172Z,24.02
2024-03-09T17:34:43.566Z,16.77
2024-03-09T17:37:35.410Z,14.38
2024-03-09T17:40:28.226Z,25.77
2024-03-09T17:43:20.464Z,15.55
2024-03-09T17:46:12.350Z,18.98
2024-03-09T17:49:04.710Z,14.65
2024-03-09T17:51:59.528Z,17.38
2024-03-09T17:54:54.417Z,13.85
2024-03-09T17:57:51.218Z,11.70
2024-03-09T18:00:43.549Z,15.63
2024-03-09T18:03:35.596Z,11.15
2024-03-09T18:06:28.079Z,32.17
2024-03-09T18:09:22.814Z,14.75
2024-03-09T18:12:17.862Z,15.65
2024-03-09T18:15:11.685Z,15.90
2024-03-09T18:18:06.444Z,19.27
2024-03-09T18:21:01.647Z,14.57
2024-03-09T18:23:54.930Z,11.50
2024-03-09T18:26:48.052Z,11.30
2024-03-09T18:29:41.180Z,13.32
2024-03-09T18:32:33.694Z,10.57
2024-03-09T18:35:26.756Z,10.27
2024-03-09T18:38:20.036Z,10.25
2024-03-09T18:41:13.107Z,10.93
2024-03-09T18:44:05.638Z,13.98
2024-03-09T18:46:59.341Z,9.57
2024-03-09T18:49:51.535Z,11.07
2024-03-09T18:52:43.919Z,11.27
2024-03-09T18:55:36.573Z,11.18
2024-03-09T18:58:28.595Z,11.05
2024-03-09T19:01:20.470Z,11.95
2024-03-09T19:04:12.550Z,14.65
2024-03-09T19:07:05.136Z,10.75
2024-03-09T19:09:57.735Z,13.55
2024-03-09T19:12:49.918Z,12.85
2024-03-09T19:15:43.291Z,13.98
2024-03-09T19:18:37.305Z,42.22
2024-03-09T19:21:29.871Z,16.73
2024-03-09T19:24:22.575Z,16.10
2024-03-09T19:27:14.739Z,23.45
2024-03-09T19:30:10.117Z,23.13
2024-03-09T19:33:03.154Z,33.80
2024-03-09T19:35:58.157Z,20.13
2024-03-09T19:38:54.836Z,17.25
2024-03-09T19:41:46.594Z,14.05
2024-03-09T19:44:44.658Z,23.50
2024-03-09T19:47:37.119Z,20.65
2024-03-09T19:50:33.268Z,36.17
2024-03-09T19:53:25.894Z,21.75
2024-03-09T19:56:19.342Z,16.58
2024-03-09T19:59:11.776Z,16.33
2024-03-09T20:02:04.307Z,20.52
2024-03-09T20:04:56.752Z,28.80
2024-03-09T20:07:57.451Z,23.48
2024-03-09T20:10:49.788Z,16.63
2024-03-09T20:13:41.809Z,15.88
2024-03-09T20:16:33.858Z,14.05
2024-03-09T20:19:26.595Z,14.70
2024-03-09T20:22:18.625Z,24.52
2024-03-09T20:25:13.931Z,12.65
2024-03-09T20:28:07.817Z,14.38
2024-03-09T20:31:01.261Z,14.35
2024-03-09T20:33:54.154Z,12.93
2024-03-09T20:36:47.171Z,11.85
2024-03-09T20:39:40.109Z,12.23
2024-03-09T20:42:32.971Z,11.88
2024-03-09T20:45:24.881Z,9.57
2024-03-09T20:48:16.961Z,14.68
2024-03-09T20:51:10.991Z,13.38
2024-03-09T20:54:04.317Z,21.08
2024-03-09T20:56:58.090Z,17.52
2024-03-09T20:59:51.980Z,13.95
2024-03-09T21:02:44.254Z,14.55
2024-03-09T21:05:38.569Z,13.35
2024-03-09T21:08:31.101Z,13.70
2024-03-09T21:11:23.818Z,16.23
2024-03-09T21:14:16.076Z,12.85
2024-03-09T21:17:09.311Z,17.52
2024-03-09T21:20:05.599Z,12.32
2024-03-09T21:22:57.819Z,13.10
2024-03-09T21:25:49.973Z,11.15
2024-03-09T21:28:43.400Z,12.02
2024-03-09T21:31:36.294Z,18.60
2024-03-09T21:34:28.775Z,16.85
2024-03-09T21:37:22.113Z,13.32
2024-03-09T21:40:15.041Z,13.32
2024-03-09T21:43:08.009Z,11.68
2024-03-09T21:46:00.684Z,13.90
2024-03-09T21:48:53.635Z,10.52
2024-03-09T21:51:45.958Z,10.25
2024-03-09T21:54:39.878Z,10.07
2024-03-09T21:57:32.357Z,11.93
2024-03-09T22:00:25.949Z,11.90
2024-03-09T22:03:18.135Z,10.48
2024-03-09T22:06:10.713Z,10.57
2024-03-09T22:09:03.128Z,11.68
2024-03-09T22:11:55.139Z,11.65
2024-03-09T22:14:48.176Z,13.43
2024-03-09T22:17:40.896Z,12.45
2024-03-09T22:20:33.353Z,14.35
2024-03-09T22:23:26.934Z,11.52
2024-03-09T22:26:19.665Z,14.43
2024-03-09T22:29:15.077Z,14.38
2024-03-09T22:32:07.406Z,11.40
2024-03-09T22:35:00.331Z,11.93
2024-03-09T22:37:55.926Z,13.52
2024-03-09T22:40:49.219Z,9.57
2024-03-09T22:43:42.334Z,13.18
2024-03-09T22:46:36.891Z,10.50
2024-03-09T22:49:28.980Z,11.27
2024-03-09T22:52:22.314Z,13.80
2024-03-09T22:55:16.338Z,10.70
2024-03-09T22:58:09.116Z,11.40
2024-03-09T23:01:16.734Z,13.82
2024-03-09T23:04:09.828Z,9.90
2024-03-09T23:07:02.448Z,10.23
2024-03-09T23:09:55.285Z,9.30
2024-03-09T23:12:51.489Z,11.68
2024-03-09T23:15:44.642Z,9.57
2024-03-09T23:18:37.641Z,11.98
2024-03-09T23:21:30.140Z,10.82
2024-03-09T23:24:22.133Z,10.57
2024-03-09T23:27:14.235Z,10.93
2024-03-09T23:30:13.283Z,12.45
2024-03-09T23:33:07.965Z,10.27
2024-03-09T23:36:00.504Z,11.65
2024-03-09T23:38:53.173Z,11.10
2024-03-09T23:41:45.547Z,18.20
2024-03-09T23:44:38.191Z,13.45
2024-03-09T23:47:30.030Z,10.93
2024-03-09T23:50:23.271Z,12.18
2024-03-09T23:53:15.746Z,15.80
2024-03-09T23:56:08.753Z,14.70
2024-03-09T23:59:02.186Z,10.02
